sensor_id;sensor_type;location;lat;lon;timestamp;temperature;humidity
6110;DHT22;3085;49.444;11.054;2023-04-03T00:01:46;4.80;99.90
6110;DHT22;3085;49.444;11.054;2023-04-03T00:04:12;4.80;99.90
6110;DHT22;3085;49.444;11.054;2023-04-03T00:06:41;4.80;99.90
6110;DHT22;3085;49.444;11.054;2023-04-03T00:09:07;4.80;99.90
6110;DHT22;3085;49.444;11.054;2023-04-03T00:11:34;4.80;99.90
6110;DHT22;3085;49.444;11.054;2023-04-03T00:14:01;5.00;99.90
6110;DHT22;3085;49.444;11.054;2023-04-03T00:16:28;4.70;99.90
6110;DHT22;3085;49.444;11.054;2023-04-03T00:18:54;4.60;99.90
6110;DHT22;3085;49.444;11.054;2023-04-03T00:21:21;4.70;99.90
6110;DHT22;3085;49.444;11.054;2023-04-03T00:23:49;4.60;99.90
6110;DHT22;3085;49.444;11.054;2023-04-03T00:26:16;4.70;99.90
6110;DHT22;3085;49.444;11.054;2023-04-03T00:28:43;4.60;99.90
6110;DHT22;3085;49.444;11.054;2023-04-03T00:31:10;4.60;99.90
6110;DHT22;3085;49.444;11.054;2023-04-03T00:33:37;4.60;99.90
6110;DHT22;3085;49.444;11.054;2023-04-03T00:36:07;4.80;99.90
6110;DHT22;3085;49.444;11.054;2023-04-03T00:38:34;4.70;99.90
6110;DHT22;3085;49.444;11.054;2023-04-03T00:41:03;4.70;99.90
6110;DHT22;3085;49.444;11.054;2023-04-03T00:43:30;4.70;99.90
6110;DHT22;3085;49.444;11.054;2023-04-03T00:45:58;4.70;99.90
6110;DHT22;3085;49.444;11.054;2023-04-03T00:48:29;5.30;99.90
6110;DHT22;3085;49.444;11.054;2023-04-03T00:50:57;4.70;99.90
6110;DHT22;3085;49.444;11.054;2023-04-03T00:53:31;4.90;99.90
6110;DHT22;3085;49.444;11.054;2023-04-03T00:56:00;4.60;99.90
6110;DHT22;3085;49.444;11.054;2023-04-03T00:58:35;4.50;99.90
6110;DHT22;3085;49.444;11.054;2023-04-03T01:01:07;4.60;99.90
6110;DHT22;3085;49.444;11.054;2023-04-03T01:03:35;4.60;99.90
6110;DHT22;3085;49.444;11.054;2023-04-03T01:06:02;4.50;99.90
6110;DHT22;3085;49.444;11.054;2023-04-03T01:08:29;4.50;99.90
6110;DHT22;3085;49.444;11.054;2023-04-03T01:10:56;4.50;99.90
6110;DHT22;3085;49.444;11.054;2023-04-03T01:13:27;4.40;99.90
6110;DHT22;3085;49.444;11.054;2023-04-03T01:15:56;4.50;99.90
6110;DHT22;3085;49.444;11.054;2023-04-03T01:18:24;4.50;99.90
6110;DHT22;3085;49.444;11.054;2023-04-03T01:21:26;4.60;99.90
6110;DHT22;3085;49.444;11.054;2023-04-03T01:24:15;4.50;99.90
6110;DHT22;3085;49.444;11.054;2023-04-03T01:26:45;4.50;99.90
6110;DHT22;3085;49.444;11.054;2023-04-03T01:29:12;4.50;99.90
6110;DHT22;3085;49.444;11.054;2023-04-03T01:31:48;4.40;99.90
6110;DHT22;3085;49.444;11.054;2023-04-03T01:34:15;4.40;99.90
6110;DHT22;3085;49.444;11.054;2023-04-03T01:36:42;4.40;99.90
6110;DHT22;3085;49.444;11.054;2023-04-03T01:39:09;4.40;99.90
6110;DHT22;3085;49.444;11.054;2023-04-03T01:41:35;4.30;99.90
6110;DHT22;3085;49.444;11.054;2023-04-03T01:44:02;4.30;99.90
6110;DHT22;3085;49.444;11.054;2023-04-03T01:46:30;4.30;99.90
6110;DHT22;3085;49.444;11.054;2023-04-03T01:48:58;4.30;99.90
6110;DHT22;3085;49.444;11.054;2023-04-03T01:51:25;4.70;99.90
6110;DHT22;3085;49.444;11.054;2023-04-03T01:53:51;4.30;99.90
6110;DHT22;3085;49.444;11.054;2023-04-03T01:56:18;4.30;99.90
6110;DHT22;3085;49.444;11.054;2023-04-03T01:58:45;4.20;99.90
6110;DHT22;3085;49.444;11.054;2023-04-03T02:01:12;4.30;99.90
6110;DHT22;3085;49.444;11.054;2023-04-03T02:03:39;4.10;99.90
6110;DHT22;3085;49.444;11.054;2023-04-03T02:06:07;4.00;99.90
6110;DHT22;3085;49.444;11.054;2023-04-03T02:08:34;4.10;99.90
6110;DHT22;3085;49.444;11.054;2023-04-03T02:11:01;4.00;99.90
6110;DHT22;3085;49.444;11.054;2023-04-03T02:13:27;3.90;99.90
6110;DHT22;3085;49.444;11.054;2023-04-03T02:15:54;3.80;99.90
6110;DHT22;3085;49.444;11.054;2023-04-03T02:18:21;3.80;99.90
6110;DHT22;3085;49.444;11.054;2023-04-03T02:20:48;3.80;99.90
6110;DHT22;3085;49.444;11.054;2023-04-03T02:23:16;3.80;99.90
6110;DHT22;3085;49.444;11.054;2023-04-03T02:25:43;3.80;99.90
6110;DHT22;3085;49.444;11.054;2023-04-03T02:28:10;3.80;99.90
6110;DHT22;3085;49.444;11.054;2023-04-03T02:30:37;3.80;99.90
6110;DHT22;3085;49.444;11.054;2023-04-03T02:33:03;3.70;99.90
6110;DHT22;3085;49.444;11.054;2023-04-03T02:35:30;3.70;99.90
6110;DHT22;3085;49.444;11.054;2023-04-03T02:37:57;3.70;99.90
6110;DHT22;3085;49.444;11.054;2023-04-03T02:40:25;3.70;99.90
6110;DHT22;3085;49.444;11.054;2023-04-03T02:42:52;3.80;99.90
6110;DHT22;3085;49.444;11.054;2023-04-03T02:45:19;3.70;99.90
6110;DHT22;3085;49.444;11.054;2023-04-03T02:47:45;3.60;99.90
6110;DHT22;3085;49.444;11.054;2023-04-03T02:50:12;3.60;99.90
6110;DHT22;3085;49.444;11.054;2023-04-03T02:52:40;3.60;99.90
6110;DHT22;3085;49.444;11.054;2023-04-03T02:55:07;3.60;99.90
6110;DHT22;3085;49.444;11.054;2023-04-03T02:57:36;3.60;99.90
6110;DHT22;3085;49.444;11.054;2023-04-03T03:00:03;3.60;99.90
6110;DHT22;3085;49.444;11.054;2023-04-03T03:02:30;3.60;99.90
6110;DHT22;3085;49.444;11.054;2023-04-03T03:04:57;3.70;99.90
6110;DHT22;3085;49.444;11.054;2023-04-03T03:07:24;3.50;99.90
6110;DHT22;3085;49.444;11.054;2023-04-03T03:09:51;4.20;99.90
6110;DHT22;3085;49.444;11.054;2023-04-03T03:12:18;3.60;99.90
6110;DHT22;3085;49.444;11.054;2023-04-03T03:14:48;3.60;99.90
6110;DHT22;3085;49.444;11.054;2023-04-03T03:17:15;3.70;99.90
6110;DHT22;3085;49.444;11.054;2023-04-03T03:19:42;3.70;99.90
6110;DHT22;3085;49.444;11.054;2023-04-03T03:22:09;3.50;99.90
6110;DHT22;3085;49.444;11.054;2023-04-03T03:24:36;3.60;99.90
6110;DHT22;3085;49.444;11.054;2023-04-03T03:27:03;3.50;99.90
6110;DHT22;3085;49.444;11.054;2023-04-03T03:29:30;3.40;99.90
6110;DHT22;3085;49.444;11.054;2023-04-03T03:31:58;3.40;99.90
6110;DHT22;3085;49.444;11.054;2023-04-03T03:34:25;3.40;99.90
6110;DHT22;3085;49.444;11.054;2023-04-03T03:36:52;3.40;99.90
6110;DHT22;3085;49.444;11.054;2023-04-03T03:39:18;3.40;99.90
6110;DHT22;3085;49.444;11.054;2023-04-03T03:41:45;3.50;99.90
6110;DHT22;3085;49.444;11.054;2023-04-03T03:44:12;3.60;99.90
6110;DHT22;3085;49.444;11.054;2023-04-03T03:46:40;4.00;99.90
6110;DHT22;3085;49.444;11.054;2023-04-03T03:49:08;3.50;99.90
6110;DHT22;3085;49.444;11.054;2023-04-03T03:51:35;3.60;99.90
6110;DHT22;3085;49.444;11.054;2023-04-03T03:54:02;1.20;99.90
6110;DHT22;3085;49.444;11.054;2023-04-03T03:56:29;3.30;99.90
6110;DHT22;3085;49.444;11.054;2023-04-03T03:58:56;3.50;99.90
6110;DHT22;3085;49.444;11.054;2023-04-03T04:01:23;3.50;99.90
6110;DHT22;3085;49.444;11.054;2023-04-03T04:03:50;3.60;99.90
6110;DHT22;3085;49.444;11.054;2023-04-03T04:06:20;3.60;99.90
6110;DHT22;3085;49.444;11.054;2023-04-03T04:08:47;3.60;99.90
6110;DHT22;3085;49.444;11.054;2023-04-03T04:11:14;3.50;99.90
6110;DHT22;3085;49.444;11.054;2023-04-03T04:13:41;3.50;99.90
6110;DHT22;3085;49.444;11.054;2023-04-03T04:16:08;3.50;99.90
6110;DHT22;3085;49.444;11.054;2023-04-03T04:18:36;3.50;99.90
6110;DHT22;3085;49.444;11.054;2023-04-03T04:21:03;3.50;99.90
6110;DHT22;3085;49.444;11.054;2023-04-03T04:23:31;3.50;99.90
6110;DHT22;3085;49.444;11.054;2023-04-03T04:25:58;3.60;99.90
6110;DHT22;3085;49.444;11.054;2023-04-03T04:28:25;3.50;99.90
6110;DHT22;3085;49.444;11.054;2023-04-03T04:30:52;3.50;99.90
6110;DHT22;3085;49.444;11.054;2023-04-03T04:33:18;3.50;99.90
6110;DHT22;3085;49.444;11.054;2023-04-03T04:35:47;3.50;99.90
6110;DHT22;3085;49.444;11.054;2023-04-03T04:38:14;3.60;99.90
6110;DHT22;3085;49.444;11.054;2023-04-03T04:40:42;3.50;99.90
6110;DHT22;3085;49.444;11.054;2023-04-03T04:43:09;3.60;99.90
6110;DHT22;3085;49.444;11.054;2023-04-03T04:45:39;3.60;99.90
6110;DHT22;3085;49.444;11.054;2023-04-03T04:48:07;3.50;99.90
6110;DHT22;3085;49.444;11.054;2023-04-03T04:50:34;3.50;99.90
6110;DHT22;3085;49.444;11.054;2023-04-03T04:53:01;3.50;99.90
6110;DHT22;3085;49.444;11.054;2023-04-03T04:55:27;3.60;99.90
6110;DHT22;3085;49.444;11.054;2023-04-03T04:58:01;3.60;99.90
6110;DHT22;3085;49.444;11.054;2023-04-03T05:00:28;3.90;99.90
6110;DHT22;3085;49.444;11.054;2023-04-03T05:02:55;3.50;99.90
6110;DHT22;3085;49.444;11.054;2023-04-03T05:05:22;3.60;99.90
6110;DHT22;3085;49.444;11.054;2023-04-03T05:07:49;3.60;99.90
6110;DHT22;3085;49.444;11.054;2023-04-03T05:10:16;3.60;99.90
6110;DHT22;3085;49.444;11.054;2023-04-03T05:12:43;3.60;99.90
6110;DHT22;3085;49.444;11.054;2023-04-03T05:15:12;5.20;99.90
6110;DHT22;3085;49.444;11.054;2023-04-03T05:17:40;3.60;99.90
6110;DHT22;3085;49.444;11.054;2023-04-03T05:20:07;3.60;99.90
6110;DHT22;3085;49.444;11.054;2023-04-03T05:22:35;3.50;99.90
6110;DHT22;3085;49.444;11.054;2023-04-03T05:25:03;3.60;99.90
6110;DHT22;3085;49.444;11.054;2023-04-03T05:27:30;3.60;99.90
6110;DHT22;3085;49.444;11.054;2023-04-03T05:29:57;3.50;99.90
6110;DHT22;3085;49.444;11.054;2023-04-03T05:32:26;3.50;99.90
6110;DHT22;3085;49.444;11.054;2023-04-03T05:34:53;3.80;99.90
6110;DHT22;3085;49.444;11.054;2023-04-03T05:37:20;3.50;99.90
6110;DHT22;3085;49.444;11.054;2023-04-03T05:39:47;3.50;99.90
6110;DHT22;3085;49.444;11.054;2023-04-03T05:42:14;3.50;99.90
6110;DHT22;3085;49.444;11.054;2023-04-03T05:44:41;3.50;99.90
6110;DHT22;3085;49.444;11.054;2023-04-03T05:47:08;3.50;99.90
6110;DHT22;3085;49.444;11.054;2023-04-03T05:49:37;3.40;99.90
6110;DHT22;3085;49.444;11.054;2023-04-03T05:52:06;3.50;99.90
6110;DHT22;3085;49.444;11.054;2023-04-03T05:54:33;3.80;99.90
6110;DHT22;3085;49.444;11.054;2023-04-03T05:57:00;3.60;99.90
6110;DHT22;3085;49.444;11.054;2023-04-03T05:59:29;3.60;99.90
6110;DHT22;3085;49.444;11.054;2023-04-03T06:01:56;3.90;99.90
6110;DHT22;3085;49.444;11.054;2023-04-03T06:04:23;3.90;99.90
6110;DHT22;3085;49.444;11.054;2023-04-03T06:06:52;4.70;99.90
6110;DHT22;3085;49.444;11.054;2023-04-03T06:09:22;3.80;99.90
6110;DHT22;3085;49.444;11.054;2023-04-03T06:11:49;3.80;99.90
6110;DHT22;3085;49.444;11.054;2023-04-03T06:14:16;3.60;99.90
6110;DHT22;3085;49.444;11.054;2023-04-03T06:16:42;3.70;99.90
6110;DHT22;3085;49.444;11.054;2023-04-03T06:19:11;3.70;99.90
6110;DHT22;3085;49.444;11.054;2023-04-03T06:21:38;3.80;99.90
6110;DHT22;3085;49.444;11.054;2023-04-03T06:24:07;3.60;99.90
6110;DHT22;3085;49.444;11.054;2023-04-03T06:26:34;3.70;99.90
6110;DHT22;3085;49.444;11.054;2023-04-03T06:29:01;3.60;99.90
6110;DHT22;3085;49.444;11.054;2023-04-03T06:31:28;3.70;99.90
6110;DHT22;3085;49.444;11.054;2023-04-03T06:33:55;3.60;99.90
6110;DHT22;3085;49.444;11.054;2023-04-03T06:36:22;3.80;99.90
6110;DHT22;3085;49.444;11.054;2023-04-03T06:38:49;4.00;99.90
6110;DHT22;3085;49.444;11.054;2023-04-03T06:41:17;3.80;99.90
6110;DHT22;3085;49.444;11.054;2023-04-03T06:43:44;3.80;99.90
6110;DHT22;3085;49.444;11.054;2023-04-03T06:46:15;3.80;99.90
6110;DHT22;3085;49.444;11.054;2023-04-03T06:48:43;3.90;99.90
6110;DHT22;3085;49.444;11.054;2023-04-03T06:51:17;4.00;99.90
6110;DHT22;3085;49.444;11.054;2023-04-03T06:53:44;4.00;99.90
6110;DHT22;3085;49.444;11.054;2023-04-03T06:56:12;3.90;99.90
6110;DHT22;3085;49.444;11.054;2023-04-03T06:58:40;4.00;99.90
6110;DHT22;3085;49.444;11.054;2023-04-03T07:01:07;4.10;99.90
6110;DHT22;3085;49.444;11.054;2023-04-03T07:03:34;4.00;99.90
6110;DHT22;3085;49.444;11.054;2023-04-03T07:06:02;3.90;99.90
6110;DHT22;3085;49.444;11.054;2023-04-03T07:08:29;3.90;99.90
6110;DHT22;3085;49.444;11.054;2023-04-03T07:10:56;3.90;99.90
6110;DHT22;3085;49.444;11.054;2023-04-03T07:13:23;4.20;99.90
6110;DHT22;3085;49.444;11.054;2023-04-03T07:15:52;4.20;99.90
6110;DHT22;3085;49.444;11.054;2023-04-03T07:18:19;4.20;99.90
6110;DHT22;3085;49.444;11.054;2023-04-03T07:20:46;4.30;99.90
6110;DHT22;3085;49.444;11.054;2023-04-03T07:23:13;4.40;99.90
6110;DHT22;3085;49.444;11.054;2023-04-03T07:25:42;4.30;99.90
6110;DHT22;3085;49.444;11.054;2023-04-03T07:28:09;4.30;99.90
6110;DHT22;3085;49.444;11.054;2023-04-03T07:30:42;4.40;99.90
6110;DHT22;3085;49.444;11.054;2023-04-03T07:33:11;4.20;99.90
6110;DHT22;3085;49.444;11.054;2023-04-03T07:35:38;4.30;99.90
6110;DHT22;3085;49.444;11.054;2023-04-03T07:38:06;4.40;99.90
6110;DHT22;3085;49.444;11.054;2023-04-03T07:40:32;4.40;99.90
6110;DHT22;3085;49.444;11.054;2023-04-03T07:43:00;4.40;99.90
6110;DHT22;3085;49.444;11.054;2023-04-03T07:45:28;4.40;99.90
6110;DHT22;3085;49.444;11.054;2023-04-03T07:47:54;4.40;99.90
6110;DHT22;3085;49.444;11.054;2023-04-03T07:50:23;4.40;99.90
6110;DHT22;3085;49.444;11.054;2023-04-03T07:52:50;4.50;99.90
6110;DHT22;3085;49.444;11.054;2023-04-03T07:55:18;4.50;99.90
6110;DHT22;3085;49.444;11.054;2023-04-03T07:57:44;4.50;99.90
6110;DHT22;3085;49.444;11.054;2023-04-03T08:00:13;4.50;99.90
6110;DHT22;3085;49.444;11.054;2023-04-03T08:02:40;4.50;99.90
6110;DHT22;3085;49.444;11.054;2023-04-03T08:05:07;4.70;99.90
6110;DHT22;3085;49.444;11.054;2023-04-03T08:07:36;4.60;99.90
6110;DHT22;3085;49.444;11.054;2023-04-03T08:10:04;4.70;99.90
6110;DHT22;3085;49.444;11.054;2023-04-03T08:12:31;4.80;99.90
6110;DHT22;3085;49.444;11.054;2023-04-03T08:14:59;4.80;99.90
6110;DHT22;3085;49.444;11.054;2023-04-03T08:17:26;5.00;99.90
6110;DHT22;3085;49.444;11.054;2023-04-03T08:19:53;4.90;99.90
6110;DHT22;3085;49.444;11.054;2023-04-03T08:22:20;4.70;99.90
6110;DHT22;3085;49.444;11.054;2023-04-03T08:24:48;4.90;99.90
6110;DHT22;3085;49.444;11.054;2023-04-03T08:27:15;5.00;99.90
6110;DHT22;3085;49.444;11.054;2023-04-03T08:29:42;5.00;99.90
6110;DHT22;3085;49.444;11.054;2023-04-03T08:32:09;5.00;99.90
6110;DHT22;3085;49.444;11.054;2023-04-03T08:34:36;5.10;99.90
6110;DHT22;3085;49.444;11.054;2023-04-03T08:37:05;5.10;99.90
6110;DHT22;3085;49.444;11.054;2023-04-03T08:39:34;5.00;99.90
6110;DHT22;3085;49.444;11.054;2023-04-03T08:42:10;5.30;99.90
6110;DHT22;3085;49.444;11.054;2023-04-03T08:44:46;5.30;99.90
6110;DHT22;3085;49.444;11.054;2023-04-03T08:47:22;5.30;99.90
6110;DHT22;3085;49.444;11.054;2023-04-03T08:49:52;5.50;99.90
6110;DHT22;3085;49.444;11.054;2023-04-03T08:52:23;5.60;99.90
6110;DHT22;3085;49.444;11.054;2023-04-03T08:54:54;5.60;99.90
6110;DHT22;3085;49.444;11.054;2023-04-03T08:57:29;5.70;99.90
6110;DHT22;3085;49.444;11.054;2023-04-03T08:59:58;6.00;99.90
6110;DHT22;3085;49.444;11.054;2023-04-03T09:02:33;6.00;99.90
6110;DHT22;3085;49.444;11.054;2023-04-03T09:05:02;6.60;99.90
6110;DHT22;3085;49.444;11.054;2023-04-03T09:07:35;5.90;99.90
6110;DHT22;3085;49.444;11.054;2023-04-03T09:10:04;6.10;99.90
6110;DHT22;3085;49.444;11.054;2023-04-03T09:12:37;5.90;99.90
6110;DHT22;3085;49.444;11.054;2023-04-03T09:15:13;5.80;99.90
6110;DHT22;3085;49.444;11.054;2023-04-03T09:17:49;5.70;99.90
6110;DHT22;3085;49.444;11.054;2023-04-03T09:20:22;5.80;99.90
6110;DHT22;3085;49.444;11.054;2023-04-03T09:22:51;5.90;99.90
6110;DHT22;3085;49.444;11.054;2023-04-03T09:25:22;5.80;99.90
6110;DHT22;3085;49.444;11.054;2023-04-03T09:27:51;5.80;99.90
6110;DHT22;3085;49.444;11.054;2023-04-03T09:30:20;5.70;99.90
6110;DHT22;3085;49.444;11.054;2023-04-03T09:32:49;5.60;99.90
6110;DHT22;3085;49.444;11.054;2023-04-03T09:35:20;5.60;99.90
6110;DHT22;3085;49.444;11.054;2023-04-03T09:37:50;5.40;99.90
6110;DHT22;3085;49.444;11.054;2023-04-03T09:40:39;5.30;99.90
6110;DHT22;3085;49.444;11.054;2023-04-03T09:43:25;5.40;99.90
6110;DHT22;3085;49.444;11.054;2023-04-03T09:45:53;5.30;99.90
6110;DHT22;3085;49.444;11.054;2023-04-03T09:48:22;5.50;99.90
6110;DHT22;3085;49.444;11.054;2023-04-03T09:50:55;5.70;99.90
6110;DHT22;3085;49.444;11.054;2023-04-03T09:53:33;5.70;99.90
6110;DHT22;3085;49.444;11.054;2023-04-03T09:56:03;5.80;99.90
6110;DHT22;3085;49.444;11.054;2023-04-03T09:58:34;5.80;99.90
6110;DHT22;3085;49.444;11.054;2023-04-03T10:01:03;5.60;99.90
6110;DHT22;3085;49.444;11.054;2023-04-03T10:03:32;5.80;99.90
6110;DHT22;3085;49.444;11.054;2023-04-03T10:06:00;5.80;99.90
6110;DHT22;3085;49.444;11.054;2023-04-03T10:08:29;5.70;99.90
6110;DHT22;3085;49.444;11.054;2023-04-03T10:11:14;5.80;99.90
6110;DHT22;3085;49.444;11.054;2023-04-03T10:13:56;5.60;99.90
6110;DHT22;3085;49.444;11.054;2023-04-03T10:16:27;5.80;99.90
6110;DHT22;3085;49.444;11.054;2023-04-03T10:19:05;5.90;99.90
6110;DHT22;3085;49.444;11.054;2023-04-03T10:21:40;5.90;99.90
6110;DHT22;3085;49.444;11.054;2023-04-03T10:24:13;5.90;99.90
6110;DHT22;3085;49.444;11.054;2023-04-03T10:26:47;5.90;99.90
6110;DHT22;3085;49.444;11.054;2023-04-03T10:29:27;6.00;99.90
6110;DHT22;3085;49.444;11.054;2023-04-03T10:32:09;5.90;99.90
6110;DHT22;3085;49.444;11.054;2023-04-03T10:34:43;6.00;99.90
6110;DHT22;3085;49.444;11.054;2023-04-03T10:37:17;6.00;99.90
6110;DHT22;3085;49.444;11.054;2023-04-03T10:39:51;6.10;99.90
6110;DHT22;3085;49.444;11.054;2023-04-03T10:42:28;6.10;99.90
6110;DHT22;3085;49.444;11.054;2023-04-03T10:45:19;6.10;99.90
6110;DHT22;3085;49.444;11.054;2023-04-03T10:47:54;5.90;99.90
6110;DHT22;3085;49.444;11.054;2023-04-03T10:50:29;6.00;99.90
6110;DHT22;3085;49.444;11.054;2023-04-03T10:53:03;6.20;99.90
6110;DHT22;3085;49.444;11.054;2023-04-03T10:55:35;6.20;99.90
6110;DHT22;3085;49.444;11.054;2023-04-03T10:58:05;6.30;99.90
6110;DHT22;3085;49.444;11.054;2023-04-03T11:00:39;6.30;99.90
6110;DHT22;3085;49.444;11.054;2023-04-03T11:03:11;6.30;99.90
6110;DHT22;3085;49.444;11.054;2023-04-03T11:05:43;6.50;99.90
6110;DHT22;3085;49.444;11.054;2023-04-03T11:08:17;6.40;99.90
6110;DHT22;3085;49.444;11.054;2023-04-03T11:10:49;6.40;99.90
6110;DHT22;3085;49.444;11.054;2023-04-03T11:13:19;6.50;99.90
6110;DHT22;3085;49.444;11.054;2023-04-03T11:15:51;6.50;99.90
6110;DHT22;3085;49.444;11.054;2023-04-03T11:18:22;6.50;99.90
6110;DHT22;3085;49.444;11.054;2023-04-03T11:20:59;6.40;99.90
6110;DHT22;3085;49.444;11.054;2023-04-03T11:23:30;6.30;99.90
6110;DHT22;3085;49.444;11.054;2023-04-03T11:26:07;6.50;99.90
6110;DHT22;3085;49.444;11.054;2023-04-03T11:28:34;6.60;99.90
6110;DHT22;3085;49.444;11.054;2023-04-03T11:31:12;6.80;99.90
6110;DHT22;3085;49.444;11.054;2023-04-03T11:33:51;6.90;99.90
6110;DHT22;3085;49.444;11.054;2023-04-03T11:36:24;6.90;99.90
6110;DHT22;3085;49.444;11.054;2023-04-03T11:38:54;6.90;99.90
6110;DHT22;3085;49.444;11.054;2023-04-03T11:41:27;6.60;99.90
6110;DHT22;3085;49.444;11.054;2023-04-03T11:43:59;6.70;99.90
6110;DHT22;3085;49.444;11.054;2023-04-03T11:46:50;6.80;99.90
6110;DHT22;3085;49.444;11.054;2023-04-03T11:49:52;6.90;99.90
6110;DHT22;3085;49.444;11.054;2023-04-03T11:52:55;6.90;99.90
6110;DHT22;3085;49.444;11.054;2023-04-03T11:55:42;7.10;99.90
6110;DHT22;3085;49.444;11.054;2023-04-03T11:58:14;7.20;99.90
6110;DHT22;3085;49.444;11.054;2023-04-03T12:01:03;7.40;99.90
6110;DHT22;3085;49.444;11.054;2023-04-03T12:03:57;7.30;99.90
6110;DHT22;3085;49.444;11.054;2023-04-03T12:06:59;7.40;99.90
6110;DHT22;3085;49.444;11.054;2023-04-03T12:09:29;7.10;99.90
6110;DHT22;3085;49.444;11.054;2023-04-03T12:12:00;7.10;99.90
6110;DHT22;3085;49.444;11.054;2023-04-03T12:14:28;7.30;99.90
6110;DHT22;3085;49.444;11.054;2023-04-03T12:16:56;7.30;99.90
6110;DHT22;3085;49.444;11.054;2023-04-03T12:19:34;7.30;99.90
6110;DHT22;3085;49.444;11.054;2023-04-03T12:22:12;6.50;99.90
6110;DHT22;3085;49.444;11.054;2023-04-03T12:24:40;7.40;99.90
6110;DHT22;3085;49.444;11.054;2023-04-03T12:27:26;7.50;99.90
6110;DHT22;3085;49.444;11.054;2023-04-03T12:29:58;7.60;99.90
6110;DHT22;3085;49.444;11.054;2023-04-03T12:32:40;7.40;99.90
6110;DHT22;3085;49.444;11.054;2023-04-03T12:35:18;7.40;99.90
6110;DHT22;3085;49.444;11.054;2023-04-03T12:38:30;7.60;99.90
6110;DHT22;3085;49.444;11.054;2023-04-03T12:41:13;7.80;99.90
6110;DHT22;3085;49.444;11.054;2023-04-03T12:43:53;7.80;99.90
6110;DHT22;3085;49.444;11.054;2023-04-03T12:46:32;7.80;99.90
6110;DHT22;3085;49.444;11.054;2023-04-03T12:48:59;7.70;99.90
6110;DHT22;3085;49.444;11.054;2023-04-03T12:51:32;7.70;99.90
6110;DHT22;3085;49.444;11.054;2023-04-03T12:54:03;7.70;99.90
6110;DHT22;3085;49.444;11.054;2023-04-03T12:56:38;7.50;99.90
6110;DHT22;3085;49.444;11.054;2023-04-03T12:59:18;7.40;99.90
6110;DHT22;3085;49.444;11.054;2023-04-03T13:01:53;7.30;99.90
6110;DHT22;3085;49.444;11.054;2023-04-03T13:04:21;7.60;99.90
6110;DHT22;3085;49.444;11.054;2023-04-03T13:06:50;7.80;99.90
6110;DHT22;3085;49.444;11.054;2023-04-03T13:09:20;7.90;99.90
6110;DHT22;3085;49.444;11.054;2023-04-03T13:11:49;8.00;99.80
6110;DHT22;3085;49.444;11.054;2023-04-03T13:14:19;7.80;99.50
6110;DHT22;3085;49.444;11.054;2023-04-03T13:16:53;7.80;99.50
6110;DHT22;3085;49.444;11.054;2023-04-03T13:19:23;8.00;99.90
6110;DHT22;3085;49.444;11.054;2023-04-03T13:21:55;8.20;99.90
6110;DHT22;3085;49.444;11.054;2023-04-03T13:24:24;8.20;99.90
6110;DHT22;3085;49.444;11.054;2023-04-03T13:26:51;8.50;99.90
6110;DHT22;3085;49.444;11.054;2023-04-03T13:29:22;8.00;99.90
6110;DHT22;3085;49.444;11.054;2023-04-03T13:31:52;8.00;99.90
6110;DHT22;3085;49.444;11.054;2023-04-03T13:34:20;7.90;99.90
6110;DHT22;3085;49.444;11.054;2023-04-03T13:36:57;8.00;99.90
6110;DHT22;3085;49.444;11.054;2023-04-03T13:39:27;8.20;99.90
6110;DHT22;3085;49.444;11.054;2023-04-03T13:41:55;8.10;99.90
6110;DHT22;3085;49.444;11.054;2023-04-03T13:44:35;8.20;99.90
6110;DHT22;3085;49.444;11.054;2023-04-03T13:47:15;8.00;99.90
6110;DHT22;3085;49.444;11.054;2023-04-03T13:49:44;8.00;99.90
6110;DHT22;3085;49.444;11.054;2023-04-03T13:52:24;8.10;99.90
6110;DHT22;3085;49.444;11.054;2023-04-03T13:54:55;8.30;99.90
6110;DHT22;3085;49.444;11.054;2023-04-03T13:57:23;8.30;99.90
6110;DHT22;3085;49.444;11.054;2023-04-03T13:59:49;8.30;99.90
6110;DHT22;3085;49.444;11.054;2023-04-03T14:02:19;8.30;99.90
6110;DHT22;3085;49.444;11.054;2023-04-03T14:04:52;8.30;99.90
6110;DHT22;3085;49.444;11.054;2023-04-03T14:07:23;8.10;99.90
6110;DHT22;3085;49.444;11.054;2023-04-03T14:09:51;8.10;99.90
6110;DHT22;3085;49.444;11.054;2023-04-03T14:12:24;8.00;99.90
6110;DHT22;3085;49.444;11.054;2023-04-03T14:14:52;8.20;99.90
6110;DHT22;3085;49.444;11.054;2023-04-03T14:17:22;8.10;99.90
6110;DHT22;3085;49.444;11.054;2023-04-03T14:19:50;8.10;99.90
6110;DHT22;3085;49.444;11.054;2023-04-03T14:22:19;8.40;99.90
6110;DHT22;3085;49.444;11.054;2023-04-03T14:24:49;8.40;99.90
6110;DHT22;3085;49.444;11.054;2023-04-03T14:27:19;8.30;99.90
6110;DHT22;3085;49.444;11.054;2023-04-03T14:29:48;8.20;99.90
6110;DHT22;3085;49.444;11.054;2023-04-03T14:32:17;8.20;99.90
6110;DHT22;3085;49.444;11.054;2023-04-03T14:34:45;8.20;99.90
6110;DHT22;3085;49.444;11.054;2023-04-03T14:37:13;8.10;99.90
6110;DHT22;3085;49.444;11.054;2023-04-03T14:39:42;8.20;99.90
6110;DHT22;3085;49.444;11.054;2023-04-03T14:42:15;8.50;99.90
6110;DHT22;3085;49.444;11.054;2023-04-03T14:44:43;8.40;99.80
6110;DHT22;3085;49.444;11.054;2023-04-03T14:47:11;8.70;99.90
6110;DHT22;3085;49.444;11.054;2023-04-03T14:49:38;8.80;99.70
6110;DHT22;3085;49.444;11.054;2023-04-03T14:52:05;8.50;99.30
6110;DHT22;3085;49.444;11.054;2023-04-03T14:54:33;8.50;99.80
6110;DHT22;3085;49.444;11.054;2023-04-03T14:57:00;8.30;99.90
6110;DHT22;3085;49.444;11.054;2023-04-03T14:59:30;8.40;99.60
6110;DHT22;3085;49.444;11.054;2023-04-03T15:01:58;8.20;99.50
6110;DHT22;3085;49.444;11.054;2023-04-03T15:04:25;8.10;99.80
6110;DHT22;3085;49.444;11.054;2023-04-03T15:06:53;8.00;99.50
6110;DHT22;3085;49.444;11.054;2023-04-03T15:09:21;8.50;99.80
6110;DHT22;3085;49.444;11.054;2023-04-03T15:11:49;8.40;99.20
6110;DHT22;3085;49.444;11.054;2023-04-03T15:14:17;8.40;98.90
6110;DHT22;3085;49.444;11.054;2023-04-03T15:16:45;8.30;99.00
6110;DHT22;3085;49.444;11.054;2023-04-03T15:19:12;8.20;99.10
6110;DHT22;3085;49.444;11.054;2023-04-03T15:21:40;8.10;99.60
6110;DHT22;3085;49.444;11.054;2023-04-03T15:24:08;8.10;98.90
6110;DHT22;3085;49.444;11.054;2023-04-03T15:26:36;8.10;99.10
6110;DHT22;3085;49.444;11.054;2023-04-03T15:29:03;7.90;99.20
6110;DHT22;3085;49.444;11.054;2023-04-03T15:31:30;7.80;99.70
6110;DHT22;3085;49.444;11.054;2023-04-03T15:33:59;7.90;99.90
6110;DHT22;3085;49.444;11.054;2023-04-03T15:36:26;8.00;99.90
6110;DHT22;3085;49.444;11.054;2023-04-03T15:38:53;7.70;99.30
6110;DHT22;3085;49.444;11.054;2023-04-03T15:41:20;7.50;99.60
6110;DHT22;3085;49.444;11.054;2023-04-03T15:43:49;7.70;99.90
6110;DHT22;3085;49.444;11.054;2023-04-03T15:46:16;8.00;99.50
6110;DHT22;3085;49.444;11.054;2023-04-03T15:48:43;8.10;99.40
6110;DHT22;3085;49.444;11.054;2023-04-03T15:51:11;8.20;99.40
6110;DHT22;3085;49.444;11.054;2023-04-03T15:53:38;8.20;99.30
6110;DHT22;3085;49.444;11.054;2023-04-03T15:56:05;8.30;99.30
6110;DHT22;3085;49.444;11.054;2023-04-03T15:58:33;8.30;98.80
6110;DHT22;3085;49.444;11.054;2023-04-03T16:01:00;8.00;98.70
6110;DHT22;3085;49.444;11.054;2023-04-03T16:03:28;7.80;98.80
6110;DHT22;3085;49.444;11.054;2023-04-03T16:05:55;7.70;99.00
6110;DHT22;3085;49.444;11.054;2023-04-03T16:08:24;7.70;99.00
6110;DHT22;3085;49.444;11.054;2023-04-03T16:10:51;7.40;99.20
6110;DHT22;3085;49.444;11.054;2023-04-03T16:13:18;7.40;99.40
6110;DHT22;3085;49.444;11.054;2023-04-03T16:15:45;7.90;99.40
6110;DHT22;3085;49.444;11.054;2023-04-03T16:18:14;7.60;99.20
6110;DHT22;3085;49.444;11.054;2023-04-03T16:20:41;7.60;99.10